Time;durP1;ratioP1;P1;durP2;ratioP2;P2;SDS_P1;SDS_P2;PMS_P1;PMS_P2;Temp;Humidity;BMP_temperature;BMP_pressure;BME280_temperature;BME280_humidity;BME280_pressure;Samples;Min_cycle;Max_cycle;Signal;HPM_P1;HPM_P2
2023/03/10 00:00:39;;;;;;;6.87;4.07;;;9.10;57.30;;;;;;6185806;28;20501;-62
2023/03/10 00:03:42;;;;;;;4.73;3.57;;;9.10;57.50;;;;;;6189717;28;20496;-61
2023/03/10 00:06:46;;;;;;;4.17;3.80;;;9.00;57.60;;;;;;6188745;28;20476;-62
2023/03/10 00:09:50;;;;;;;4.90;3.90;;;9.00;57.90;;;;;;6188041;28;20484;-61
2023/03/10 00:12:53;;;;;;;5.47;4.10;;;8.90;58.00;;;;;;6187140;28;20964;-61
2023/03/10 00:15:57;;;;;;;6.03;4.77;;;9.00;58.30;;;;;;6187253;28;20484;-61
2023/03/10 00:19:00;;;;;;;7.30;3.90;;;8.90;58.30;;;;;;6187158;28;20496;-61
2023/03/10 00:22:03;;;;;;;5.13;4.27;;;8.80;58.60;;;;;;6186524;28;20470;-62
2023/03/10 00:25:10;;;;;;;5.50;4.30;;;8.90;58.90;;;;;;6188605;28;20481;-61
2023/03/10 00:28:13;;;;;;;5.80;5.13;;;8.90;59.20;;;;;;6186876;28;20473;-62
2023/03/10 00:31:19;;;;;;;4.97;4.37;;;8.90;59.40;;;;;;6185736;28;20469;-61
2023/03/10 00:34:22;;;;;;;6.50;4.47;;;8.80;59.60;;;;;;6188338;28;20469;-62
2023/03/10 00:37:25;;;;;;;4.93;3.83;;;8.80;59.90;;;;;;6188002;28;20484;-61
2023/03/10 00:40:30;;;;;;;5.50;3.73;;;8.70;60.30;;;;;;6186152;28;20492;-61
2023/03/10 00:43:34;;;;;;;5.77;3.63;;;8.70;60.40;;;;;;6187138;28;20818;-62
2023/03/10 00:46:38;;;;;;;5.43;3.43;;;8.70;60.80;;;;;;6186182;28;20473;-61
2023/03/10 00:49:41;;;;;;;7.93;4.60;;;8.60;60.80;;;;;;6185281;28;21024;-62
2023/03/10 00:52:44;;;;;;;7.67;4.10;;;8.60;61.00;;;;;;6187308;28;20945;-62
2023/03/10 00:55:59;;;;;;;7.43;4.80;;;8.60;61.30;;;;;;6185956;28;20481;-61
2023/03/10 00:59:03;;;;;;;5.33;4.10;;;8.60;61.90;;;;;;6187664;28;20484;-62
2023/03/10 01:02:06;;;;;;;4.10;3.57;;;8.50;62.40;;;;;;6184865;28;20483;-62
2023/03/10 01:05:10;;;;;;;5.90;3.90;;;8.50;62.70;;;;;;6188370;28;20862;-62
2023/03/10 01:08:13;;;;;;;4.40;4.00;;;8.50;62.80;;;;;;6187860;28;20472;-62
2023/03/10 01:11:20;;;;;;;3.90;3.60;;;8.50;63.10;;;;;;6197906;28;20951;-62
2023/03/10 01:14:24;;;;;;;4.03;3.63;;;8.40;63.30;;;;;;6190796;28;20441;-61
2023/03/10 01:17:27;;;;;;;4.37;3.97;;;8.40;63.30;;;;;;6191894;28;20840;-63
2023/03/10 01:20:31;;;;;;;3.67;3.33;;;8.40;63.80;;;;;;6190115;28;20437;-62
2023/03/10 01:23:34;;;;;;;6.83;3.60;;;8.30;64.10;;;;;;6189498;28;20449;-61
2023/03/10 01:26:39;;;;;;;6.13;4.30;;;8.30;64.50;;;;;;6203376;28;20468;-62
2023/03/10 01:29:42;;;;;;;5.30;4.30;;;8.30;64.70;;;;;;6204258;28;20465;-61
2023/03/10 01:32:45;;;;;;;3.83;3.40;;;8.20;65.20;;;;;;6204067;28;20456;-61
2023/03/10 01:35:49;;;;;;;6.53;4.13;;;8.30;65.80;;;;;;6204102;28;20547;-61
2023/03/10 01:38:53;;;;;;;6.17;3.83;;;8.30;65.80;;;;;;6203392;28;20480;-62
2023/03/10 01:41:57;;;;;;;3.60;2.93;;;8.20;66.40;;;;;;6203662;28;20499;-61
2023/03/10 01:45:05;;;;;;;3.33;3.00;;;8.20;66.30;;;;;;6204107;28;20505;-61
2023/03/10 01:48:09;;;;;;;6.67;3.37;;;8.20;66.70;;;;;;6203853;28;20801;-61
2023/03/10 01:51:12;;;;;;;3.30;3.10;;;8.20;66.70;;;;;;6205815;28;20864;-61
2023/03/10 01:54:19;;;;;;;4.23;3.23;;;8.20;66.70;;;;;;6204330;28;20472;-61
2023/03/10 01:57:28;;;;;;;6.30;3.13;;;8.10;67.00;;;;;;6190303;28;20476;-60
2023/03/10 02:00:31;;;;;;;2.87;2.53;;;8.10;67.10;;;;;;6202823;28;21085;-62
2023/03/10 02:03:40;;;;;;;3.23;2.93;;;8.10;67.20;;;;;;6202629;28;20804;-62
2023/03/10 02:06:47;;;;;;;4.60;2.97;;;8.10;67.80;;;;;;6199363;28;20490;-62
2023/03/10 02:09:52;;;;;;;5.37;3.23;;;8.10;67.80;;;;;;6181363;28;20489;-62
2023/03/10 02:12:57;;;;;;;7.77;3.70;;;8.10;68.00;;;;;;6215942;28;20814;-62
2023/03/10 02:16:00;;;;;;;5.40;4.10;;;8.00;68.40;;;;;;6226054;28;20963;-62
2023/03/10 02:19:06;;;;;;;3.50;3.30;;;8.00;68.90;;;;;;6189101;28;20486;-61
2023/03/10 02:22:11;;;;;;;2.93;2.63;;;8.00;69.40;;;;;;6190108;28;20480;-61
2023/03/10 02:25:28;;;;;;;5.83;2.80;;;7.90;69.70;;;;;;6198930;28;20476;-61
2023/03/10 02:28:32;;;;;;;3.93;3.53;;;7.90;70.00;;;;;;6191902;28;20474;-62
2023/03/10 02:31:36;;;;;;;21.43;11.67;;;7.80;70.10;;;;;;6191703;28;20485;-62
2023/03/10 02:34:39;;;;;;;5.27;4.30;;;7.80;70.50;;;;;;6190460;28;20487;-62
2023/03/10 02:37:43;;;;;;;5.63;3.67;;;7.80;70.70;;;;;;6197092;28;20499;-62
2023/03/10 02:40:48;;;;;;;7.13;4.50;;;7.60;71.80;;;;;;6191079;28;20497;-62
2023/03/10 02:43:54;;;;;;;6.67;4.20;;;7.30;72.90;;;;;;6191079;28;20483;-62
2023/03/10 02:46:58;;;;;;;5.67;4.00;;;7.30;73.80;;;;;;6188336;28;20487;-62
2023/03/10 02:50:01;;;;;;;5.63;4.20;;;7.30;74.30;;;;;;6187503;28;20487;-62
2023/03/10 02:53:11;;;;;;;5.80;4.50;;;7.30;75.00;;;;;;6190065;28;20473;-62
2023/03/10 02:56:14;;;;;;;5.43;4.40;;;7.20;75.90;;;;;;6187492;28;20480;-61
2023/03/10 02:59:19;;;;;;;10.00;4.57;;;7.20;76.70;;;;;;6185692;28;20476;-62
2023/03/10 03:02:22;;;;;;;6.20;5.70;;;7.10;77.20;;;;;;6189773;28;20796;-62
2023/03/10 03:05:25;;;;;;;5.90;5.13;;;7.00;78.20;;;;;;6190738;28;20890;-62
2023/03/10 03:08:29;;;;;;;7.47;5.37;;;6.90;79.40;;;;;;6190587;28;20480;-62
2023/03/10 03:11:32;;;;;;;7.53;5.43;;;6.80;80.40;;;;;;6192269;28;20460;-63
2023/03/10 03:14:37;;;;;;;5.93;5.37;;;6.80;81.80;;;;;;6188881;28;20446;-62
2023/03/10 03:17:40;;;;;;;8.63;5.00;;;6.80;82.80;;;;;;6189780;28;20481;-61
2023/03/10 03:20:44;;;;;;;6.40;4.33;;;6.80;83.30;;;;;;6190041;28;20473;-61
2023/03/10 03:23:47;;;;;;;6.30;4.73;;;6.90;83.60;;;;;;6187501;28;20481;-61
2023/03/10 03:26:51;;;;;;;5.27;4.70;;;7.00;83.50;;;;;;6177609;28;20517;-62
2023/03/10 03:29:55;;;;;;;3.93;3.63;;;7.00;83.40;;;;;;6177817;28;20496;-61
2023/03/10 03:32:59;;;;;;;4.40;4.00;;;7.10;83.10;;;;;;6179505;28;20952;-61
2023/03/10 03:36:02;;;;;;;6.70;3.93;;;7.10;82.90;;;;;;6193120;28;20487;-59
2023/03/10 03:39:06;;;;;;;7.53;5.00;;;7.10;83.10;;;;;;6201415;28;20476;-59
2023/03/10 03:42:09;;;;;;;3.70;3.40;;;7.10;83.10;;;;;;6201564;28;20853;-59
2023/03/10 03:45:15;;;;;;;3.80;3.40;;;7.10;83.00;;;;;;6202040;28;20484;-59
2023/03/10 03:48:18;;;;;;;4.10;3.60;;;7.10;82.80;;;;;;6201646;28;20500;-60
2023/03/10 03:51:24;;;;;;;3.40;3.03;;;7.00;82.90;;;;;;6201441;28;20469;-62
2023/03/10 03:54:27;;;;;;;5.10;3.77;;;7.00;83.00;;;;;;6201179;28;20469;-62
2023/03/10 03:57:30;;;;;;;3.20;2.77;;;7.00;82.90;;;;;;6201121;28;20477;-61
2023/03/10 04:00:37;;;;;;;7.60;3.87;;;7.00;82.80;;;;;;6201189;28;20477;-61
2023/03/10 04:03:40;;;;;;;4.57;2.90;;;7.00;82.90;;;;;;6196498;28;20481;-62
2023/03/10 04:06:43;;;;;;;4.50;2.77;;;7.00;83.00;;;;;;6200915;28;20487;-62
2023/03/10 04:09:46;;;;;;;5.07;2.77;;;7.00;83.20;;;;;;6200971;28;20488;-62
2023/03/10 04:12:50;;;;;;;2.83;2.10;;;7.00;83.60;;;;;;6199332;28;20473;-62
2023/03/10 04:15:57;;;;;;;4.00;2.43;;;7.00;83.70;;;;;;6175778;28;20965;-63
2023/03/10 04:19:00;;;;;;;3.17;2.87;;;6.90;83.60;;;;;;6176430;28;20502;-63
2023/03/10 04:22:03;;;;;;;3.40;3.10;;;6.80;83.60;;;;;;6176964;28;20470;-63
2023/03/10 04:25:08;;;;;;;2.67;2.47;;;6.80;83.60;;;;;;6189362;28;20805;-63
2023/03/10 04:28:12;;;;;;;6.80;2.77;;;6.70;83.70;;;;;;6181924;28;20469;-63
2023/03/10 04:31:18;;;;;;;4.40;2.97;;;6.70;84.10;;;;;;6184748;28;20470;-63
2023/03/10 04:34:22;;;;;;;5.17;2.67;;;6.70;84.70;;;;;;6176776;28;20488;-63
2023/03/10 04:37:26;;;;;;;5.40;3.07;;;6.60;85.30;;;;;;6176277;28;20572;-63
2023/03/10 04:40:29;;;;;;;3.10;2.73;;;6.60;85.70;;;;;;6176740;28;20547;-62
2023/03/10 04:43:33;;;;;;;8.83;2.53;;;6.60;86.20;;;;;;6179852;28;20493;-62
2023/03/10 04:46:38;;;;;;;4.90;3.20;;;6.60;86.00;;;;;;6181376;28;20563;-62
2023/03/10 04:49:41;;;;;;;5.10;3.27;;;6.60;87.00;;;;;;6181370;28;20474;-62
2023/03/10 04:52:45;;;;;;;4.50;2.80;;;6.60;87.30;;;;;;6181039;28;20483;-62
2023/03/10 04:55:50;;;;;;;3.20;2.90;;;6.60;87.40;;;;;;6181450;28;20490;-63
2023/03/10 04:58:53;;;;;;;3.87;2.90;;;6.60;87.60;;;;;;6180713;28;20937;-63
2023/03/10 05:01:59;;;;;;;3.17;2.77;;;6.60;87.90;;;;;;6180795;28;20485;-62
2023/03/10 05:05:02;;;;;;;5.87;3.00;;;6.60;88.30;;;;;;6181119;28;20559;-62
2023/03/10 05:08:06;;;;;;;8.17;2.60;;;6.60;88.10;;;;;;6180891;28;20496;-63
2023/03/10 05:11:09;;;;;;;3.70;2.90;;;6.50;88.50;;;;;;6180632;28;20938;-62
2023/03/10 05:14:13;;;;;;;3.40;3.00;;;6.50;88.80;;;;;;6180436;28;20722;-62
2023/03/10 05:17:17;;;;;;;3.73;3.20;;;6.50;88.90;;;;;;6180794;28;20480;-62
2023/03/10 05:20:21;;;;;;;3.57;3.27;;;6.60;89.20;;;;;;6180464;28;20802;-62
2023/03/10 05:23:25;;;;;;;6.73;3.10;;;6.60;89.10;;;;;;6181034;28;20462;-62
2023/03/10 05:26:29;;;;;;;5.30;3.10;;;6.60;89.10;;;;;;6181024;28;20446;-63
2023/03/10 05:29:38;;;;;;;5.30;3.63;;;6.60;89.20;;;;;;6180253;28;20902;-63
2023/03/10 05:32:44;;;;;;;4.27;3.50;;;6.60;89.20;;;;;;6180851;28;20458;-63
2023/03/10 05:35:48;;;;;;;4.10;3.70;;;6.60;89.20;;;;;;6180418;28;20484;-62
2023/03/10 05:38:51;;;;;;;5.67;4.10;;;6.60;89.20;;;;;;6180339;28;20477;-62
2023/03/10 05:41:55;;;;;;;6.70;3.77;;;6.60;89.20;;;;;;6180993;28;20478;-62
2023/03/10 05:44:58;;;;;;;8.53;3.70;;;6.60;89.00;;;;;;6181227;28;20470;-62
2023/03/10 05:48:03;;;;;;;4.37;3.97;;;6.60;89.10;;;;;;6181355;28;20470;-62
2023/03/10 05:51:08;;;;;;;4.57;4.17;;;6.60;89.20;;;;;;6179729;28;20958;-62
2023/03/10 05:54:12;;;;;;;4.97;4.03;;;6.60;89.10;;;;;;6179748;28;20852;-62
2023/03/10 05:57:15;;;;;;;7.80;4.30;;;6.70;89.40;;;;;;6180046;28;20465;-63
2023/03/10 06:00:19;;;;;;;6.70;4.73;;;6.70;89.10;;;;;;6179871;28;20477;-63
2023/03/10 06:03:24;;;;;;;6.53;4.47;;;6.80;89.20;;;;;;6179798;28;20803;-63
2023/03/10 06:06:28;;;;;;;6.00;4.67;;;6.90;89.00;;;;;;6180061;28;20599;-63
2023/03/10 06:09:32;;;;;;;4.60;3.97;;;7.00;89.10;;;;;;6176004;28;20554;-62
2023/03/10 06:12:35;;;;;;;5.60;4.20;;;7.10;89.00;;;;;;6179925;28;20489;-62
2023/03/10 06:15:38;;;;;;;4.17;3.10;;;7.20;88.80;;;;;;6179610;28;20485;-62
2023/03/10 06:18:43;;;;;;;7.40;4.00;;;7.30;88.50;;;;;;6179329;28;20499;-62
2023/03/10 06:21:46;;;;;;;5.00;3.70;;;7.40;88.40;;;;;;6179381;28;20477;-63
2023/03/10 06:24:49;;;;;;;5.07;3.43;;;7.60;87.70;;;;;;6179448;28;20485;-62
2023/03/10 06:27:53;;;;;;;4.70;3.50;;;7.70;87.30;;;;;;6179156;28;20480;-62
2023/03/10 06:30:56;;;;;;;6.27;3.50;;;7.90;86.70;;;;;;6179162;28;20473;-62
2023/03/10 06:34:01;;;;;;;4.37;3.90;;;8.00;86.00;;;;;;6179187;28;20628;-63
2023/03/10 06:37:06;;;;;;;5.00;4.50;;;8.10;85.60;;;;;;6179303;28;20506;-63
2023/03/10 06:40:13;;;;;;;3.80;3.00;;;8.30;85.20;;;;;;6179344;28;20489;-62
2023/03/10 06:43:17;;;;;;;7.00;4.73;;;8.50;84.50;;;;;;6179151;28;20473;-62
2023/03/10 06:46:20;;;;;;;5.07;3.67;;;8.70;84.40;;;;;;6179165;28;20492;-62
2023/03/10 06:49:28;;;;;;;14.30;4.80;;;8.80;83.70;;;;;;6178442;28;20580;-62
2023/03/10 06:52:33;;;;;;;10.83;5.33;;;9.00;83.20;;;;;;6178739;28;20803;-63
2023/03/10 06:55:36;;;;;;;4.33;3.93;;;9.20;82.50;;;;;;6178351;28;20481;-63
2023/03/10 06:58:40;;;;;;;5.43;4.67;;;9.30;81.70;;;;;;6178477;28;20562;-63
2023/03/10 07:01:43;;;;;;;6.43;4.60;;;9.40;80.80;;;;;;6178416;28;20493;-63
2023/03/10 07:04:48;;;;;;;16.63;4.43;;;9.60;80.80;;;;;;6178244;28;20469;-63
2023/03/10 07:07:51;;;;;;;5.80;4.53;;;9.60;80.40;;;;;;6177514;28;20608;-63
2023/03/10 07:10:55;;;;;;;5.93;4.30;;;9.80;79.70;;;;;;6178176;28;20817;-63
2023/03/10 07:13:58;;;;;;;8.10;5.10;;;9.90;79.00;;;;;;6178541;28;20489;-63
2023/03/10 07:17:02;;;;;;;6.93;4.17;;;10.00;77.90;;;;;;6174269;28;20493;-63
2023/03/10 07:20:09;;;;;;;6.03;4.23;;;10.20;77.60;;;;;;6177811;28;20624;-63
2023/03/10 07:23:13;;;;;;;6.47;3.93;;;10.40;77.20;;;;;;6177832;28;20884;-63
2023/03/10 07:26:17;;;;;;;5.90;4.50;;;10.50;76.20;;;;;;6177685;28;20478;-63
2023/03/10 07:29:21;;;;;;;9.43;4.40;;;10.60;75.40;;;;;;6178441;28;20490;-63
2023/03/10 07:32:24;;;;;;;4.00;3.60;;;10.80;75.30;;;;;;6177687;28;20457;-62
2023/03/10 07:35:29;;;;;;;8.57;3.67;;;10.90;74.60;;;;;;6177950;28;20536;-63
2023/03/10 07:38:32;;;;;;;5.93;3.80;;;11.00;74.70;;;;;;6177925;28;20496;-63
2023/03/10 07:41:35;;;;;;;5.43;4.13;;;11.30;73.70;;;;;;6177737;28;20482;-63
2023/03/10 07:44:38;;;;;;;5.07;4.10;;;11.40;72.20;;;;;;6178274;28;20442;-63
2023/03/10 07:47:41;;;;;;;5.10;3.80;;;11.50;71.90;;;;;;6177391;28;20473;-63
2023/03/10 07:50:54;;;;;;;9.50;4.30;;;11.50;71.50;;;;;;6177420;28;20468;-62
2023/03/10 07:53:57;;;;;;;7.80;4.10;;;11.70;71.90;;;;;;6177356;28;20482;-63
2023/03/10 07:57:01;;;;;;;10.80;4.20;;;12.50;71.30;;;;;;6177766;28;20469;-63
2023/03/10 08:00:05;;;;;;;4.40;3.43;;;14.00;68.90;;;;;;6176620;28;20493;-62
2023/03/10 08:03:08;;;;;;;5.40;3.80;;;15.40;63.10;;;;;;6177464;28;20477;-62
2023/03/10 08:06:19;;;;;;;5.90;3.87;;;16.50;57.60;;;;;;6177169;28;20469;-63
2023/03/10 08:09:22;;;;;;;8.50;3.90;;;17.60;54.70;;;;;;6177388;28;20477;-62
2023/03/10 08:12:25;;;;;;;9.77;3.80;;;19.30;50.80;;;;;;6177119;28;20477;-62
2023/03/10 08:15:28;;;;;;;7.33;4.43;;;21.60;45.60;;;;;;6176959;28;20241;-64
2023/03/10 08:18:32;;;;;;;10.27;6.40;;;23.40;40.00;;;;;;6172974;28;20543;-63
2023/03/10 08:21:37;;;;;;;6.63;4.13;;;24.60;36.60;;;;;;6176727;28;20686;-63
2023/03/10 08:24:40;;;;;;;5.90;4.70;;;26.60;33.00;;;;;;6177013;28;20704;-63
2023/03/10 08:27:43;;;;;;;7.10;4.77;;;28.90;29.40;;;;;;6176822;28;20337;-63
2023/03/10 08:30:47;;;;;;;7.43;4.43;;;30.40;26.40;;;;;;6177069;28;20221;-64
2023/03/10 08:34:05;;;;;;;5.97;4.47;;;31.30;24.50;;;;;;6176940;28;20245;-65
2023/03/10 08:37:11;;;;;;;5.78;3.95;;;32.50;23.10;;;;;;6176927;28;20229;-64
2023/03/10 08:40:15;;;;;;;7.65;4.93;;;33.60;22.10;;;;;;6176786;28;20237;-63
2023/03/10 08:43:18;;;;;;;6.43;4.72;;;34.30;20.90;;;;;;6176960;28;20233;-64
2023/03/10 08:46:23;;;;;;;4.65;4.25;;;34.90;20.20;;;;;;6177003;28;20304;-64
2023/03/10 08:49:26;;;;;;;7.72;4.32;;;35.60;20.00;;;;;;6176656;28;20230;-64
2023/03/10 08:52:31;;;;;;;5.18;4.68;;;35.90;19.30;;;;;;6176407;28;20243;-63
2023/03/10 08:55:35;;;;;;;4.68;4.07;;;36.10;18.50;;;;;;6176559;28;20244;-64
2023/03/10 08:58:38;;;;;;;7.97;5.20;;;35.90;18.50;;;;;;6178135;28;20244;-64
2023/03/10 09:01:42;;;;;;;5.60;4.72;;;36.50;18.40;;;;;;6178996;28;20624;-64
2023/03/10 09:04:45;;;;;;;5.22;4.65;;;36.90;17.90;;;;;;6176872;28;20245;-64
2023/03/10 09:07:49;;;;;;;5.13;4.53;;;37.40;17.40;;;;;;6189662;28;20224;-63
2023/03/10 09:10:53;;;;;;;6.43;5.13;;;37.10;17.60;;;;;;6200269;28;20240;-63
2023/03/10 09:13:56;;;;;;;5.45;4.95;;;36.50;18.00;;;;;;6189784;28;20220;-63
2023/03/10 09:16:59;;;;;;;5.63;4.45;;;35.70;18.40;;;;;;6189384;28;20265;-63
2023/03/10 09:20:05;;;;;;;7.05;4.90;;;33.20;20.50;;;;;;6188846;28;20243;-63
2023/03/10 09:23:11;;;;;;;7.97;6.13;;;32.30;21.20;;;;;;6188959;28;20222;-62
2023/03/10 09:26:14;;;;;;;5.95;4.88;;;30.50;22.90;;;;;;6186366;28;20221;-62
2023/03/10 09:29:17;;;;;;;6.60;5.90;;;29.90;23.50;;;;;;6187952;28;20228;-62
2023/03/10 09:32:22;;;;;;;5.65;4.72;;;29.40;24.20;;;;;;6191544;28;20213;-62
2023/03/10 09:35:25;;;;;;;7.30;4.40;;;29.10;24.90;;;;;;6192050;28;20216;-60
2023/03/10 09:38:30;;;;;;;6.73;4.73;;;28.80;25.60;;;;;;6194788;28;20241;-61
2023/03/10 09:42:03;;;;;;;5.30;4.80;;;29.70;25.00;;;;;;6193470;28;20225;-62
2023/03/10 09:45:23;;;;;;;6.20;5.40;;;29.80;25.00;;;;;;6192738;28;20243;-61
2023/03/10 09:48:39;;;;;;;5.27;4.77;;;28.60;26.00;;;;;;6192096;28;20225;-63
2023/03/10 09:51:45;;;;;;;7.20;4.67;;;27.20;27.90;;;;;;6190435;28;20222;-61
2023/03/10 09:54:58;;;;;;;10.40;4.93;;;25.80;30.00;;;;;;6179618;28;20234;-61
2023/03/10 09:58:02;;;;;;;6.03;3.87;;;26.80;29.30;;;;;;6180075;28;20241;-62
2023/03/10 10:01:09;;;;;;;5.80;4.20;;;28.20;28.10;;;;;;6180177;28;20229;-62
2023/03/10 10:04:17;;;;;;;5.33;3.93;;;29.50;26.80;;;;;;6180018;28;20230;-62
2023/03/10 10:07:22;;;;;;;4.20;3.70;;;30.40;25.70;;;;;;6179865;28;20328;-62
2023/03/10 10:10:29;;;;;;;7.15;3.88;;;31.10;25.10;;;;;;6204109;28;20657;-62
2023/03/10 10:13:34;;;;;;;4.90;4.40;;;31.50;24.40;;;;;;6204039;28;20228;-63
2023/03/10 10:16:46;;;;;;;7.25;4.25;;;31.50;24.10;;;;;;6218702;28;20225;-63
2023/03/10 10:19:52;;;;;;;4.70;4.10;;;30.70;24.70;;;;;;6227909;28;20232;-62
2023/03/10 10:22:55;;;;;;;7.53;4.60;;;31.30;24.70;;;;;;6227695;28;20243;-62
2023/03/10 10:26:07;;;;;;;5.57;4.65;;;32.10;23.80;;;;;;6223458;28;20242;-63
2023/03/10 10:29:15;;;;;;;5.07;4.47;;;31.00;24.80;;;;;;6227512;28;20251;-62
2023/03/10 10:32:19;;;;;;;5.30;4.22;;;32.90;24.30;;;;;;6227908;28;20220;-62
2023/03/10 10:35:25;;;;;;;5.00;4.50;;;34.40;22.50;;;;;;6227754;28;20235;-63
2023/03/10 10:38:29;;;;;;;7.03;4.53;;;35.10;21.50;;;;;;6227805;28;20236;-62
2023/03/10 10:41:35;;;;;;;4.97;3.65;;;36.80;20.80;;;;;;6209374;28;20202;-62
2023/03/10 10:44:41;;;;;;;4.85;3.55;;;39.80;19.10;;;;;;6199704;28;20510;-62
2023/03/10 10:47:49;;;;;;;5.35;3.67;;;41.40;17.60;;;;;;6196324;28;20228;-63
2023/03/10 10:50:54;;;;;;;5.22;3.75;;;41.40;16.90;;;;;;6192322;28;20230;-62
2023/03/10 10:53:58;;;;;;;5.10;3.22;;;41.90;16.60;;;;;;6189767;28;20238;-62
2023/03/10 10:57:05;;;;;;;6.80;3.90;;;40.00;16.90;;;;;;6199942;28;20251;-62
2023/03/10 11:00:24;;;;;;;3.47;3.00;;;37.80;18.90;;;;;;6204382;28;20246;-62
2023/03/10 11:03:30;;;;;;;3.90;3.53;;;38.60;18.60;;;;;;6205236;28;20237;-62
2023/03/10 11:06:36;;;;;;;4.22;3.33;;;38.90;18.30;;;;;;6203361;28;20236;-62
2023/03/10 11:09:40;;;;;;;4.55;3.53;;;38.70;18.10;;;;;;6201807;28;20221;-64
2023/03/10 11:12:56;;;;;;;4.63;3.30;;;36.90;19.00;;;;;;6197141;28;20551;-65
2023/03/10 11:16:05;;;;;;;10.02;3.53;;;35.80;20.00;;;;;;6194498;28;20257;-63
2023/03/10 11:19:16;;;;;;;5.22;3.75;;;34.40;21.20;;;;;;6178070;28;20253;-66
2023/03/10 11:22:29;;;;;;;5.15;4.03;;;34.20;21.30;;;;;;6184031;28;20545;-65
2023/03/10 11:25:38;;;;;;;4.05;3.50;;;31.80;23.00;;;;;;6193853;28;20240;-66
2023/03/10 11:28:50;;;;;;;6.25;3.90;;;32.50;23.40;;;;;;6202062;28;20241;-68
2023/03/10 11:31:58;;;;;;;8.18;4.25;;;32.80;22.60;;;;;;6201802;28;20240;-69
2023/03/10 11:35:16;;;;;;;4.85;3.60;;;29.70;25.70;;;;;;6201820;28;20233;-65
2023/03/10 11:38:29;;;;;;;5.88;4.43;;;32.10;24.50;;;;;;6201501;28;20237;-67
2023/03/10 11:41:38;;;;;;;6.22;3.83;;;32.00;23.50;;;;;;6201655;28;20235;-65
2023/03/10 11:44:51;;;;;;;5.10;3.53;;;30.80;24.60;;;;;;6201630;28;20539;-64
2023/03/10 11:48:08;;;;;;;5.57;4.00;;;29.90;25.10;;;;;;6184488;28;20690;-67
2023/03/10 11:51:18;;;;;;;6.67;3.37;;;28.50;26.20;;;;;;6177053;28;20706;-64
2023/03/10 11:54:25;;;;;;;8.60;4.07;;;27.10;27.90;;;;;;6177155;28;20237;-64
2023/03/10 11:57:34;;;;;;;5.17;3.73;;;27.30;28.50;;;;;;6177197;28;20237;-65
2023/03/10 12:00:42;;;;;;;6.23;3.83;;;27.70;28.00;;;;;;6176775;28;20244;-65
2023/03/10 12:03:53;;;;;;;6.70;3.60;;;27.90;27.60;;;;;;6176939;28;20261;-65
2023/03/10 12:07:02;;;;;;;8.33;3.97;;;27.30;28.00;;;;;;6176702;28;20583;-65
2023/03/10 12:10:15;;;;;;;4.53;4.13;;;26.50;29.00;;;;;;6197662;28;20248;-64
2023/03/10 12:13:27;;;;;;;6.80;3.17;;;25.60;30.00;;;;;;6200376;28;20224;-63
2023/03/10 12:16:35;;;;;;;6.10;3.37;;;24.60;31.10;;;;;;6215022;28;20284;-63
2023/03/10 12:20:06;;;;;;;4.43;3.00;;;23.50;32.30;;;;;;6204132;28;20260;-62
2023/03/10 12:23:39;;;;;;;4.87;3.63;;;22.50;33.80;;;;;;6200047;28;20229;-62
2023/03/10 12:27:00;;;;;;;3.37;2.80;;;21.60;34.90;;;;;;6201310;28;21646;-63
2023/03/10 12:30:45;;;;;;;5.60;3.67;;;21.20;36.80;;;;;;6199996;28;20241;-63
2023/03/10 12:34:08;;;;;;;6.07;3.07;;;21.00;36.70;;;;;;6178116;28;20321;-63
2023/03/10 12:37:12;;;;;;;4.43;3.00;;;20.70;37.30;;;;;;6207472;28;20247;-61
2023/03/10 12:40:45;;;;;;;5.90;3.13;;;20.40;37.70;;;;;;6224045;28;20229;-64
2023/03/10 12:43:58;;;;;;;3.70;3.23;;;20.40;38.00;;;;;;6200445;28;20581;-65
2023/03/10 12:47:18;;;;;;;3.53;2.93;;;20.20;38.40;;;;;;6200193;28;20240;-64
2023/03/10 12:50:30;;;;;;;5.53;3.63;;;20.50;38.50;;;;;;6199751;28;20237;-63
2023/03/10 12:53:40;;;;;;;9.03;3.43;;;21.40;37.70;;;;;;6200140;28;20218;-63
2023/03/10 12:56:50;;;;;;;7.07;4.27;;;22.80;36.30;;;;;;6201586;28;20213;-64
2023/03/10 13:00:01;;;;;;;4.00;3.03;;;24.00;34.30;;;;;;6200195;28;20238;-64
2023/03/10 13:03:12;;;;;;;6.93;3.20;;;25.80;31.70;;;;;;6200357;28;20248;-66
2023/03/10 13:06:27;;;;;;;5.30;3.10;;;27.20;29.70;;;;;;6197115;28;20240;-65
2023/03/10 13:09:34;;;;;;;4.87;3.10;;;29.60;26.80;;;;;;6205266;28;20556;-64
2023/03/10 13:12:47;;;;;;;4.80;3.22;;;33.00;24.10;;;;;;6204838;28;20251;-64
2023/03/10 13:15:58;;;;;;;6.32;3.45;;;36.30;21.30;;;;;;6213521;28;20224;-61
2023/03/10 13:19:02;;;;;;;5.18;3.53;;;38.50;18.90;;;;;;6183325;28;20248;-62
2023/03/10 13:22:15;;;;;;;4.05;2.85;;;40.10;17.70;;;;;;6185630;28;20233;-64
2023/03/10 13:25:19;;;;;;;6.22;3.28;;;41.60;16.80;;;;;;6180645;28;20234;-62
2023/03/10 13:28:22;;;;;;;5.88;3.30;;;42.40;15.70;;;;;;6202746;28;20232;-63
2023/03/10 13:31:27;;;;;;;5.47;3.70;;;40.70;15.50;;;;;;6204708;28;20661;-64
2023/03/10 13:34:32;;;;;;;3.50;3.20;;;40.90;15.90;;;;;;6204227;28;20243;-64
2023/03/10 13:37:37;;;;;;;4.07;3.42;;;40.70;15.30;;;;;;6191396;28;20248;-65
2023/03/10 13:40:43;;;;;;;6.07;3.55;;;39.50;16.80;;;;;;6204214;28;20237;-65
2023/03/10 13:43:48;;;;;;;3.83;3.30;;;38.50;16.40;;;;;;6200827;28;20235;-64
2023/03/10 13:46:53;;;;;;;4.63;3.38;;;36.00;17.50;;;;;;6192065;28;20233;-64
2023/03/10 13:50:00;;;;;;;5.40;3.15;;;33.90;18.60;;;;;;6192777;28;20240;-64
2023/03/10 13:53:04;;;;;;;5.10;3.05;;;32.30;20.20;;;;;;6192649;28;20670;-65
2023/03/10 13:56:20;;;;;;;4.30;3.90;;;30.80;21.80;;;;;;6191043;28;20513;-64
2023/03/10 13:59:26;;;;;;;5.57;3.83;;;28.90;23.70;;;;;;6197253;28;20241;-65
2023/03/10 14:02:32;;;;;;;4.43;3.70;;;27.10;25.10;;;;;;6185434;28;20229;-65
2023/03/10 14:05:41;;;;;;;5.83;3.90;;;25.00;27.70;;;;;;6179895;28;20234;-63
2023/03/10 14:08:45;;;;;;;6.80;3.63;;;23.60;29.40;;;;;;6192021;28;20268;-63
2023/03/10 14:11:49;;;;;;;5.67;3.47;;;22.50;30.70;;;;;;6214109;28;20654;-63
2023/03/10 14:14:53;;;;;;;5.40;3.63;;;22.10;31.80;;;;;;6205183;28;20321;-64
2023/03/10 14:18:17;;;;;;;4.70;3.23;;;21.70;32.40;;;;;;6227907;28;20247;-63
2023/03/10 14:21:29;;;;;;;3.53;3.20;;;21.30;33.10;;;;;;6228175;28;20340;-62
2023/03/10 14:24:34;;;;;;;5.23;3.03;;;20.90;34.30;;;;;;6227596;28;20589;-62
2023/03/10 14:27:39;;;;;;;4.80;3.40;;;20.40;35.40;;;;;;6210709;28;20248;-63
2023/03/10 14:30:44;;;;;;;6.93;3.20;;;20.20;36.00;;;;;;6203353;28;20233;-63
2023/03/10 14:33:48;;;;;;;5.67;2.70;;;19.80;36.60;;;;;;6203862;28;20245;-63
2023/03/10 14:36:51;;;;;;;6.93;3.53;;;19.60;37.20;;;;;;6203374;28;20240;-63
2023/03/10 14:39:56;;;;;;;5.07;3.40;;;19.40;38.30;;;;;;6194455;28;20233;-62
2023/03/10 14:43:02;;;;;;;4.20;2.50;;;19.10;39.10;;;;;;6203188;28;20233;-62
2023/03/10 14:46:06;;;;;;;2.87;2.67;;;19.00;37.50;;;;;;6203468;28;20226;-63
2023/03/10 14:49:14;;;;;;;7.17;2.67;;;18.40;38.30;;;;;;6203142;28;20308;-64
2023/03/10 14:52:19;;;;;;;5.37;2.63;;;18.20;39.80;;;;;;6202706;28;20745;-62
2023/03/10 14:55:24;;;;;;;2.60;2.00;;;17.80;40.20;;;;;;6202632;28;20240;-63
2023/03/10 14:58:31;;;;;;;4.00;2.47;;;17.40;42.90;;;;;;6202697;28;20234;-64
2023/03/10 15:01:36;;;;;;;2.53;2.30;;;17.00;45.00;;;;;;6203357;28;20472;-62
2023/03/10 15:04:39;;;;;;;3.37;1.97;;;16.70;46.20;;;;;;6202474;28;20488;-63
2023/03/10 15:07:43;;;;;;;2.90;2.23;;;16.40;48.10;;;;;;6203153;28;20488;-63
2023/03/10 15:10:50;;;;;;;3.40;2.13;;;16.20;49.80;;;;;;6202146;28;20570;-62
2023/03/10 15:13:54;;;;;;;3.20;2.00;;;15.90;53.20;;;;;;6202722;28;20465;-63
2023/03/10 15:16:57;;;;;;;1.97;1.67;;;15.50;55.50;;;;;;6201835;28;20999;-62
2023/03/10 15:20:00;;;;;;;2.80;2.00;;;15.30;55.70;;;;;;6201623;28;20484;-63
2023/03/10 15:23:04;;;;;;;3.50;2.00;;;15.20;55.80;;;;;;6201711;28;20544;-64
2023/03/10 15:26:12;;;;;;;1.70;1.60;;;15.20;55.60;;;;;;6201462;28;20487;-63
2023/03/10 15:29:16;;;;;;;2.43;1.73;;;15.10;55.60;;;;;;6201501;28;20477;-64
2023/03/10 15:32:19;;;;;;;2.73;1.70;;;14.90;53.40;;;;;;6201436;28;20772;-65
2023/03/10 15:35:23;;;;;;;2.90;1.70;;;15.00;53.50;;;;;;6201826;28;20496;-64
2023/03/10 15:38:26;;;;;;;5.33;2.77;;;14.90;52.90;;;;;;6201629;28;20472;-64
2023/03/10 15:41:34;;;;;;;2.70;2.50;;;15.00;53.80;;;;;;6197543;28;20890;-63
2023/03/10 15:44:38;;;;;;;3.33;2.60;;;15.10;55.90;;;;;;6198010;28;20465;-62
2023/03/10 15:47:42;;;;;;;3.87;3.47;;;15.10;58.60;;;;;;6189878;28;20458;-63
2023/03/10 15:50:46;;;;;;;4.20;3.73;;;15.30;61.00;;;;;;6177014;28;20450;-63
2023/03/10 15:53:50;;;;;;;4.00;3.60;;;15.40;62.50;;;;;;6180752;28;20534;-64
2023/03/10 15:56:55;;;;;;;3.57;3.23;;;15.50;63.40;;;;;;6178966;28;20469;-63
2023/03/10 15:59:59;;;;;;;3.37;2.30;;;15.70;64.10;;;;;;6178446;28;20976;-63
2023/03/10 16:03:02;;;;;;;2.70;2.50;;;16.00;64.10;;;;;;6179144;28;20508;-63
2023/03/10 16:06:08;;;;;;;3.73;3.00;;;16.20;64.00;;;;;;6195622;28;20452;-63
2023/03/10 16:09:11;;;;;;;4.40;2.97;;;16.40;65.00;;;;;;6193386;28;20972;-63
2023/03/10 16:12:16;;;;;;;4.83;3.00;;;16.60;65.50;;;;;;6201712;28;20807;-63